Hlavní strana
METAR-TAF:

METAR-TAF

Letiště :

Oujda, Maroko

zeměpisná šířka: 34-47N, zeměpisná délka: 001-56W, výška: 468 m

Aktuální stav počasí

Zpráva byla vytvořena před 40 minutami, v 09:30 UTC
vítr z různých směrů 1 kt
Teplota 13°C
Vlhkost vzduchu 82%
Tlak 1021 hPa
Viditelnost: 6000 m
Polojasno ve výšce 600 ft
Polojasno ve výšce 6000 ft

METAR: GMFO 040930Z VRB01KT 6000 SCT006 SCT060 13/10 Q1021 NOSIG

Čas: 11:10 (10:10 UTC)

Předpověď počasí

Zpráva byla vytvořena před 5 hodinami a 10 minutami, v 05:00 UTC
Předpověď platná od 04 v 06 UTC do 05 v 12 UTC
Severoseverozápadní vítr 8 kt
Viditelnost: 7000 m
Oblačno až skoro zataženo ve výšce 1600 ft
Pravděpodobnost 40% :
Dočasný
od 04 v 06 UTC do 04 v 09 UTC
vítr z různých směrů 2 kt
Viditelnost: 2000 m
Oblačno až skoro zataženo ve výšce 1000 ft
kouřmo

TAF: GMFO 040500Z 0406/0512 33008KT 7000 BKN016 PROB40 TEMPO 0406/0409 VRB02KT 2000 BR BKN010

Stav a předpovědi počasí z více než 4 000 letišť (zprávy METAR a TAF).

Červené a žluté tečky na mapě představují dostupné meteorologické stanice.

Když kurzor umístíte na tečku, zobrazí se název stanice.

Pak kliknutím zobrazíte stav a předpověď počasí.

Chcete-li změnit mapu, kliknutím na zelené tlačítko se znaménkem +mapu přiblížíte, kliknutím na zelené tlačítko se znaménkem – mapu oddálíte a kliknutím na zelené šipky přejdete na sousední mapy.


METAR-TAF: